sensor_id;sensor_type;location;lat;lon;timestamp;temperature;humidity
16437;DHT22;8328;52.206;21.006;2023-07-29T00:01:55;17.70;99.90
16437;DHT22;8328;52.206;21.006;2023-07-29T00:04:21;17.70;99.90
16437;DHT22;8328;52.206;21.006;2023-07-29T00:06:48;17.80;99.90
16437;DHT22;8328;52.206;21.006;2023-07-29T00:09:14;17.80;99.90
16437;DHT22;8328;52.206;21.006;2023-07-29T00:11:40;17.80;99.90
16437;DHT22;8328;52.206;21.006;2023-07-29T00:14:06;17.90;99.90
16437;DHT22;8328;52.206;21.006;2023-07-29T00:18:58;17.70;99.90
16437;DHT22;8328;52.206;21.006;2023-07-29T00:23:50;17.70;99.90
16437;DHT22;8328;52.206;21.006;2023-07-29T00:26:17;17.60;99.90
16437;DHT22;8328;52.206;21.006;2023-07-29T00:28:43;17.60;99.90
16437;DHT22;8328;52.206;21.006;2023-07-29T00:31:10;17.70;99.90
16437;DHT22;8328;52.206;21.006;2023-07-29T00:36:02;17.80;99.90
16437;DHT22;8328;52.206;21.006;2023-07-29T00:40:56;17.80;99.90
16437;DHT22;8328;52.206;21.006;2023-07-29T00:43:22;17.70;99.90
16437;DHT22;8328;52.206;21.006;2023-07-29T00:45:49;17.70;99.90
16437;DHT22;8328;52.206;21.006;2023-07-29T00:48:15;17.70;99.90
16437;DHT22;8328;52.206;21.006;2023-07-29T00:50:41;17.70;99.90
16437;DHT22;8328;52.206;21.006;2023-07-29T00:53:07;17.70;99.90
16437;DHT22;8328;52.206;21.006;2023-07-29T00:57:59;17.60;99.90
16437;DHT22;8328;52.206;21.006;2023-07-29T01:02:53;17.60;99.90
16437;DHT22;8328;52.206;21.006;2023-07-29T01:05:20;17.60;99.90
16437;DHT22;8328;52.206;21.006;2023-07-29T01:07:59;17.60;99.90
16437;DHT22;8328;52.206;21.006;2023-07-29T01:11:17;17.50;99.90
16437;DHT22;8328;52.206;21.006;2023-07-29T01:13:53;17.60;99.90
16437;DHT22;8328;52.206;21.006;2023-07-29T01:16:40;17.50;99.90
16437;DHT22;8328;52.206;21.006;2023-07-29T01:19:25;17.50;99.90
16437;DHT22;8328;52.206;21.006;2023-07-29T01:21:56;17.50;99.90
16437;DHT22;8328;52.206;21.006;2023-07-29T01:24:21;17.60;99.90
16437;DHT22;8328;52.206;21.006;2023-07-29T01:29:13;17.50;99.90
16437;DHT22;8328;52.206;21.006;2023-07-29T01:31:43;17.40;99.90
16437;DHT22;8328;52.206;21.006;2023-07-29T01:34:17;17.20;99.90
16437;DHT22;8328;52.206;21.006;2023-07-29T01:36:50;17.10;99.90
16437;DHT22;8328;52.206;21.006;2023-07-29T01:39:20;17.10;99.90
16437;DHT22;8328;52.206;21.006;2023-07-29T01:41:48;17.10;99.90
16437;DHT22;8328;52.206;21.006;2023-07-29T01:44:14;17.10;99.90
16437;DHT22;8328;52.206;21.006;2023-07-29T01:46:40;16.90;99.90
16437;DHT22;8328;52.206;21.006;2023-07-29T01:51:32;16.90;99.90
16437;DHT22;8328;52.206;21.006;2023-07-29T01:53:58;16.70;99.90
16437;DHT22;8328;52.206;21.006;2023-07-29T01:56:25;16.70;99.90
16437;DHT22;8328;52.206;21.006;2023-07-29T02:03:44;16.50;99.90
16437;DHT22;8328;52.206;21.006;2023-07-29T02:06:10;16.40;99.90
16437;DHT22;8328;52.206;21.006;2023-07-29T02:08:37;16.40;99.90
16437;DHT22;8328;52.206;21.006;2023-07-29T02:11:06;16.30;99.90
16437;DHT22;8328;52.206;21.006;2023-07-29T02:18:24;16.20;99.90
16437;DHT22;8328;52.206;21.006;2023-07-29T02:20:51;16.20;99.90
16437;DHT22;8328;52.206;21.006;2023-07-29T02:25:42;16.10;99.90
16437;DHT22;8328;52.206;21.006;2023-07-29T02:33:02;16.10;99.90
16437;DHT22;8328;52.206;21.006;2023-07-29T02:35:27;16.10;99.90
16437;DHT22;8328;52.206;21.006;2023-07-29T02:37:53;16.10;99.90
16437;DHT22;8328;52.206;21.006;2023-07-29T02:40:19;16.00;99.90
16437;DHT22;8328;52.206;21.006;2023-07-29T02:42:47;16.00;99.90
16437;DHT22;8328;52.206;21.006;2023-07-29T02:45:13;16.00;99.90
16437;DHT22;8328;52.206;21.006;2023-07-29T02:47:39;15.90;99.90
16437;DHT22;8328;52.206;21.006;2023-07-29T02:50:05;15.90;99.90
16437;DHT22;8328;52.206;21.006;2023-07-29T02:54:57;15.90;99.90
16437;DHT22;8328;52.206;21.006;2023-07-29T02:59:49;15.90;99.90
16437;DHT22;8328;52.206;21.006;2023-07-29T03:02:15;15.90;99.90
16437;DHT22;8328;52.206;21.006;2023-07-29T03:04:41;15.90;99.90
16437;DHT22;8328;52.206;21.006;2023-07-29T03:09:33;16.00;99.90
16437;DHT22;8328;52.206;21.006;2023-07-29T03:11:59;15.90;99.90
16437;DHT22;8328;52.206;21.006;2023-07-29T03:14:26;16.00;99.90
16437;DHT22;8328;52.206;21.006;2023-07-29T03:19:18;16.10;99.90
16437;DHT22;8328;52.206;21.006;2023-07-29T03:21:43;16.20;99.90
16437;DHT22;8328;52.206;21.006;2023-07-29T03:26:35;16.40;99.90
16437;DHT22;8328;52.206;21.006;2023-07-29T03:29:01;16.50;99.90
16437;DHT22;8328;52.206;21.006;2023-07-29T03:31:27;16.60;99.90
16437;DHT22;8328;52.206;21.006;2023-07-29T03:38:45;16.80;99.90
16437;DHT22;8328;52.206;21.006;2023-07-29T03:43:37;16.80;99.90
16437;DHT22;8328;52.206;21.006;2023-07-29T03:46:03;16.70;99.90
16437;DHT22;8328;52.206;21.006;2023-07-29T03:48:29;16.70;99.90
16437;DHT22;8328;52.206;21.006;2023-07-29T03:50:54;16.70;99.90
16437;DHT22;8328;52.206;21.006;2023-07-29T04:00:39;16.70;99.90
16437;DHT22;8328;52.206;21.006;2023-07-29T04:03:04;16.80;99.90
16437;DHT22;8328;52.206;21.006;2023-07-29T04:05:30;17.00;99.90
16437;DHT22;8328;52.206;21.006;2023-07-29T04:07:56;16.90;99.90
16437;DHT22;8328;52.206;21.006;2023-07-29T04:10:22;17.10;99.90
16437;DHT22;8328;52.206;21.006;2023-07-29T04:12:48;17.20;99.90
16437;DHT22;8328;52.206;21.006;2023-07-29T04:15:13;17.30;99.90
16437;DHT22;8328;52.206;21.006;2023-07-29T04:17:39;17.40;99.90
16437;DHT22;8328;52.206;21.006;2023-07-29T04:20:05;17.40;99.90
16437;DHT22;8328;52.206;21.006;2023-07-29T04:22:31;17.50;99.90
16437;DHT22;8328;52.206;21.006;2023-07-29T04:27:23;17.60;99.90
16437;DHT22;8328;52.206;21.006;2023-07-29T04:29:50;17.70;99.90
16437;DHT22;8328;52.206;21.006;2023-07-29T04:32:16;17.90;99.90
16437;DHT22;8328;52.206;21.006;2023-07-29T04:39:35;18.40;99.90
16437;DHT22;8328;52.206;21.006;2023-07-29T04:42:01;18.40;99.90
16437;DHT22;8328;52.206;21.006;2023-07-29T04:46:54;18.50;99.90
16437;DHT22;8328;52.206;21.006;2023-07-29T04:49:20;18.60;99.90
16437;DHT22;8328;52.206;21.006;2023-07-29T04:54:12;18.90;99.90
16437;DHT22;8328;52.206;21.006;2023-07-29T04:59:04;19.10;99.90
16437;DHT22;8328;52.206;21.006;2023-07-29T05:01:30;19.20;99.90
16437;DHT22;8328;52.206;21.006;2023-07-29T05:06:22;19.40;99.90
16437;DHT22;8328;52.206;21.006;2023-07-29T05:11:13;19.20;99.90
16437;DHT22;8328;52.206;21.006;2023-07-29T05:13:39;19.10;99.90
16437;DHT22;8328;52.206;21.006;2023-07-29T05:18:31;18.80;99.90
16437;DHT22;8328;52.206;21.006;2023-07-29T05:23:23;19.10;99.90
16437;DHT22;8328;52.206;21.006;2023-07-29T05:25:50;19.20;99.90
16437;DHT22;8328;52.206;21.006;2023-07-29T05:28:16;19.40;99.90
16437;DHT22;8328;52.206;21.006;2023-07-29T05:30:43;19.50;99.90
16437;DHT22;8328;52.206;21.006;2023-07-29T05:33:09;19.30;99.90
16437;DHT22;8328;52.206;21.006;2023-07-29T05:35:35;19.30;99.90
16437;DHT22;8328;52.206;21.006;2023-07-29T05:38:00;19.80;99.90
16437;DHT22;8328;52.206;21.006;2023-07-29T05:42:52;19.60;99.90
16437;DHT22;8328;52.206;21.006;2023-07-29T05:45:18;19.60;99.90
16437;DHT22;8328;52.206;21.006;2023-07-29T05:47:44;19.70;99.90
16437;DHT22;8328;52.206;21.006;2023-07-29T05:50:10;19.70;99.90
16437;DHT22;8328;52.206;21.006;2023-07-29T05:52:37;19.80;99.90
16437;DHT22;8328;52.206;21.006;2023-07-29T05:55:02;20.10;99.90
16437;DHT22;8328;52.206;21.006;2023-07-29T05:57:28;20.30;99.90
16437;DHT22;8328;52.206;21.006;2023-07-29T05:59:54;21.00;99.90
16437;DHT22;8328;52.206;21.006;2023-07-29T06:02:20;21.10;99.90
16437;DHT22;8328;52.206;21.006;2023-07-29T06:04:46;21.50;99.90
16437;DHT22;8328;52.206;21.006;2023-07-29T06:07:12;22.00;99.90
16437;DHT22;8328;52.206;21.006;2023-07-29T06:09:37;22.40;99.90
16437;DHT22;8328;52.206;21.006;2023-07-29T06:12:03;22.70;99.90
16437;DHT22;8328;52.206;21.006;2023-07-29T06:14:29;22.90;99.90
16437;DHT22;8328;52.206;21.006;2023-07-29T06:16:55;22.70;99.90
16437;DHT22;8328;52.206;21.006;2023-07-29T06:19:21;22.50;99.90
16437;DHT22;8328;52.206;21.006;2023-07-29T06:21:47;22.40;99.90
16437;DHT22;8328;52.206;21.006;2023-07-29T06:24:13;22.10;99.90
16437;DHT22;8328;52.206;21.006;2023-07-29T06:26:39;21.80;99.90
16437;DHT22;8328;52.206;21.006;2023-07-29T06:29:05;21.40;99.90
16437;DHT22;8328;52.206;21.006;2023-07-29T06:31:31;21.10;99.90
16437;DHT22;8328;52.206;21.006;2023-07-29T06:33:58;21.00;99.90
16437;DHT22;8328;52.206;21.006;2023-07-29T06:36:24;20.90;99.90
16437;DHT22;8328;52.206;21.006;2023-07-29T06:38:50;21.10;99.90
16437;DHT22;8328;52.206;21.006;2023-07-29T06:41:15;21.00;99.90
16437;DHT22;8328;52.206;21.006;2023-07-29T06:43:42;20.90;99.90
16437;DHT22;8328;52.206;21.006;2023-07-29T06:46:07;20.90;99.90
16437;DHT22;8328;52.206;21.006;2023-07-29T06:50:59;21.40;99.90
16437;DHT22;8328;52.206;21.006;2023-07-29T06:53:29;22.30;99.90
16437;DHT22;8328;52.206;21.006;2023-07-29T06:55:55;22.70;99.90
16437;DHT22;8328;52.206;21.006;2023-07-29T06:58:21;23.00;99.90
16437;DHT22;8328;52.206;21.006;2023-07-29T07:00:47;22.60;99.90
16437;DHT22;8328;52.206;21.006;2023-07-29T07:05:39;23.50;99.90
16437;DHT22;8328;52.206;21.006;2023-07-29T07:08:05;22.40;99.90
16437;DHT22;8328;52.206;21.006;2023-07-29T07:12:59;22.30;99.90
16437;DHT22;8328;52.206;21.006;2023-07-29T07:15:25;22.40;99.90
16437;DHT22;8328;52.206;21.006;2023-07-29T07:17:51;22.30;99.90
16437;DHT22;8328;52.206;21.006;2023-07-29T07:20:17;22.40;99.90
16437;DHT22;8328;52.206;21.006;2023-07-29T07:22:43;22.40;99.90
16437;DHT22;8328;52.206;21.006;2023-07-29T07:25:09;22.30;99.90
16437;DHT22;8328;52.206;21.006;2023-07-29T07:27:36;23.40;99.90
16437;DHT22;8328;52.206;21.006;2023-07-29T07:30:03;22.00;99.90
16437;DHT22;8328;52.206;21.006;2023-07-29T07:32:28;22.40;99.90
16437;DHT22;8328;52.206;21.006;2023-07-29T07:34:54;22.70;99.90
16437;DHT22;8328;52.206;21.006;2023-07-29T07:39:46;22.40;99.90
16437;DHT22;8328;52.206;21.006;2023-07-29T07:42:12;22.30;99.90
16437;DHT22;8328;52.206;21.006;2023-07-29T07:44:38;21.70;99.90
16437;DHT22;8328;52.206;21.006;2023-07-29T07:47:03;21.20;99.90
16437;DHT22;8328;52.206;21.006;2023-07-29T07:49:29;21.00;99.90
16437;DHT22;8328;52.206;21.006;2023-07-29T07:54:21;20.80;99.90
16437;DHT22;8328;52.206;21.006;2023-07-29T07:56:47;20.80;99.90
16437;DHT22;8328;52.206;21.006;2023-07-29T07:59:13;20.90;99.90
16437;DHT22;8328;52.206;21.006;2023-07-29T08:01:39;20.90;99.90
16437;DHT22;8328;52.206;21.006;2023-07-29T08:04:05;21.40;99.90
16437;DHT22;8328;52.206;21.006;2023-07-29T08:06:31;21.70;99.90
16437;DHT22;8328;52.206;21.006;2023-07-29T08:08:58;22.00;99.90
16437;DHT22;8328;52.206;21.006;2023-07-29T08:11:24;22.30;99.90
16437;DHT22;8328;52.206;21.006;2023-07-29T08:13:49;22.30;99.90
16437;DHT22;8328;52.206;21.006;2023-07-29T08:18:41;22.90;99.90
16437;DHT22;8328;52.206;21.006;2023-07-29T08:21:07;23.30;99.90
16437;DHT22;8328;52.206;21.006;2023-07-29T08:23:34;23.30;99.90
16437;DHT22;8328;52.206;21.006;2023-07-29T08:26:03;23.70;99.90
16437;DHT22;8328;52.206;21.006;2023-07-29T08:28:37;23.90;99.90
16437;DHT22;8328;52.206;21.006;2023-07-29T08:31:03;24.50;99.90
16437;DHT22;8328;52.206;21.006;2023-07-29T08:33:31;24.50;99.90
16437;DHT22;8328;52.206;21.006;2023-07-29T08:35:59;24.70;99.90
16437;DHT22;8328;52.206;21.006;2023-07-29T08:38:25;24.70;99.90
16437;DHT22;8328;52.206;21.006;2023-07-29T08:41:16;24.80;99.90
16437;DHT22;8328;52.206;21.006;2023-07-29T08:43:58;24.80;99.90
16437;DHT22;8328;52.206;21.006;2023-07-29T08:46:24;24.70;99.90
16437;DHT22;8328;52.206;21.006;2023-07-29T08:48:51;24.60;99.90
16437;DHT22;8328;52.206;21.006;2023-07-29T08:51:17;24.20;99.90
16437;DHT22;8328;52.206;21.006;2023-07-29T08:53:44;24.10;99.90
16437;DHT22;8328;52.206;21.006;2023-07-29T08:58:36;23.60;99.90
16437;DHT22;8328;52.206;21.006;2023-07-29T09:01:03;23.70;99.90
16437;DHT22;8328;52.206;21.006;2023-07-29T09:03:28;24.10;99.90
16437;DHT22;8328;52.206;21.006;2023-07-29T09:05:55;24.10;99.90
16437;DHT22;8328;52.206;21.006;2023-07-29T09:08:23;24.30;99.90
16437;DHT22;8328;52.206;21.006;2023-07-29T09:10:49;24.50;99.90
16437;DHT22;8328;52.206;21.006;2023-07-29T09:13:15;24.50;99.90
16437;DHT22;8328;52.206;21.006;2023-07-29T09:15:41;24.80;99.90
16437;DHT22;8328;52.206;21.006;2023-07-29T09:18:16;24.90;99.90
16437;DHT22;8328;52.206;21.006;2023-07-29T09:20:52;25.00;99.90
16437;DHT22;8328;52.206;21.006;2023-07-29T09:23:21;24.70;99.90
16437;DHT22;8328;52.206;21.006;2023-07-29T09:25:47;24.70;99.90
16437;DHT22;8328;52.206;21.006;2023-07-29T09:28:20;24.30;99.90
16437;DHT22;8328;52.206;21.006;2023-07-29T09:30:46;24.50;99.90
16437;DHT22;8328;52.206;21.006;2023-07-29T09:33:15;24.60;99.90
16437;DHT22;8328;52.206;21.006;2023-07-29T09:35:44;24.80;99.90
16437;DHT22;8328;52.206;21.006;2023-07-29T09:38:14;25.20;99.90
16437;DHT22;8328;52.206;21.006;2023-07-29T09:40:41;25.30;99.90
16437;DHT22;8328;52.206;21.006;2023-07-29T09:43:08;25.30;99.90
16437;DHT22;8328;52.206;21.006;2023-07-29T09:45:35;25.00;99.90
16437;DHT22;8328;52.206;21.006;2023-07-29T09:48:02;25.00;99.90
16437;DHT22;8328;52.206;21.006;2023-07-29T09:50:29;25.20;99.90
16437;DHT22;8328;52.206;21.006;2023-07-29T09:52:56;25.10;99.90
16437;DHT22;8328;52.206;21.006;2023-07-29T09:55:26;25.00;99.90
16437;DHT22;8328;52.206;21.006;2023-07-29T09:58:01;25.10;99.90
16437;DHT22;8328;52.206;21.006;2023-07-29T10:00:30;25.10;99.90
16437;DHT22;8328;52.206;21.006;2023-07-29T10:02:57;25.40;99.90
16437;DHT22;8328;52.206;21.006;2023-07-29T10:05:26;25.70;99.90
16437;DHT22;8328;52.206;21.006;2023-07-29T10:07:52;25.50;99.90
16437;DHT22;8328;52.206;21.006;2023-07-29T10:10:20;25.80;99.90
16437;DHT22;8328;52.206;21.006;2023-07-29T10:12:46;25.90;99.90
16437;DHT22;8328;52.206;21.006;2023-07-29T10:15:12;25.80;99.90
16437;DHT22;8328;52.206;21.006;2023-07-29T10:17:39;26.10;99.90
16437;DHT22;8328;52.206;21.006;2023-07-29T10:20:07;26.30;99.90
16437;DHT22;8328;52.206;21.006;2023-07-29T10:22:39;26.50;99.90
16437;DHT22;8328;52.206;21.006;2023-07-29T10:27:49;26.70;99.90
16437;DHT22;8328;52.206;21.006;2023-07-29T10:30:16;26.80;99.90
16437;DHT22;8328;52.206;21.006;2023-07-29T10:32:44;27.10;99.90
16437;DHT22;8328;52.206;21.006;2023-07-29T10:35:13;27.30;99.90
16437;DHT22;8328;52.206;21.006;2023-07-29T10:37:40;27.10;99.90
16437;DHT22;8328;52.206;21.006;2023-07-29T10:40:08;26.90;99.90
16437;DHT22;8328;52.206;21.006;2023-07-29T10:42:34;27.10;99.90
16437;DHT22;8328;52.206;21.006;2023-07-29T10:45:00;27.50;99.90
16437;DHT22;8328;52.206;21.006;2023-07-29T10:47:42;28.20;99.90
16437;DHT22;8328;52.206;21.006;2023-07-29T10:50:20;28.90;98.00
16437;DHT22;8328;52.206;21.006;2023-07-29T10:52:51;29.00;93.80
16437;DHT22;8328;52.206;21.006;2023-07-29T10:57:51;29.70;90.60
16437;DHT22;8328;52.206;21.006;2023-07-29T11:00:19;30.00;81.00
16437;DHT22;8328;52.206;21.006;2023-07-29T11:02:59;29.90;77.50
16437;DHT22;8328;52.206;21.006;2023-07-29T11:05:26;29.70;74.30
16437;DHT22;8328;52.206;21.006;2023-07-29T11:07:52;30.10;74.80
16437;DHT22;8328;52.206;21.006;2023-07-29T11:10:18;30.20;70.20
16437;DHT22;8328;52.206;21.006;2023-07-29T11:12:47;30.40;68.80
16437;DHT22;8328;52.206;21.006;2023-07-29T11:20:14;31.10;61.40
16437;DHT22;8328;52.206;21.006;2023-07-29T11:22:40;31.80;61.20
16437;DHT22;8328;52.206;21.006;2023-07-29T11:25:11;32.00;54.20
16437;DHT22;8328;52.206;21.006;2023-07-29T11:27:38;31.80;52.70
16437;DHT22;8328;52.206;21.006;2023-07-29T11:30:06;31.30;53.70
16437;DHT22;8328;52.206;21.006;2023-07-29T11:32:34;31.60;52.80
16437;DHT22;8328;52.206;21.006;2023-07-29T11:35:04;31.70;51.80
16437;DHT22;8328;52.206;21.006;2023-07-29T11:37:33;32.30;50.90
16437;DHT22;8328;52.206;21.006;2023-07-29T11:39:59;32.70;50.30
16437;DHT22;8328;52.206;21.006;2023-07-29T11:42:26;33.20;48.00
16437;DHT22;8328;52.206;21.006;2023-07-29T11:44:52;33.30;42.90
16437;DHT22;8328;52.206;21.006;2023-07-29T11:47:18;33.10;40.90
16437;DHT22;8328;52.206;21.006;2023-07-29T11:49:43;31.90;42.30
16437;DHT22;8328;52.206;21.006;2023-07-29T11:52:10;32.00;42.60
16437;DHT22;8328;52.206;21.006;2023-07-29T11:54:38;32.00;42.10
16437;DHT22;8328;52.206;21.006;2023-07-29T11:57:06;32.90;42.00
16437;DHT22;8328;52.206;21.006;2023-07-29T11:59:37;33.60;41.00
16437;DHT22;8328;52.206;21.006;2023-07-29T12:02:10;34.40;37.20
16437;DHT22;8328;52.206;21.006;2023-07-29T12:04:37;34.70;36.00
16437;DHT22;8328;52.206;21.006;2023-07-29T12:07:04;35.20;33.70
16437;DHT22;8328;52.206;21.006;2023-07-29T12:11:56;36.40;29.10
16437;DHT22;8328;52.206;21.006;2023-07-29T12:14:29;36.50;26.70
16437;DHT22;8328;52.206;21.006;2023-07-29T12:16:54;36.70;25.80
16437;DHT22;8328;52.206;21.006;2023-07-29T12:21:48;35.60;25.70
16437;DHT22;8328;52.206;21.006;2023-07-29T12:26:41;35.80;25.20
16437;DHT22;8328;52.206;21.006;2023-07-29T12:29:15;36.70;23.80
16437;DHT22;8328;52.206;21.006;2023-07-29T12:31:42;37.20;21.60
16437;DHT22;8328;52.206;21.006;2023-07-29T12:34:08;37.20;20.40
16437;DHT22;8328;52.206;21.006;2023-07-29T12:36:45;36.80;20.20
16437;DHT22;8328;52.206;21.006;2023-07-29T12:39:28;36.50;20.60
16437;DHT22;8328;52.206;21.006;2023-07-29T12:41:57;37.70;17.50
16437;DHT22;8328;52.206;21.006;2023-07-29T12:44:30;37.70;18.00
16437;DHT22;8328;52.206;21.006;2023-07-29T12:46:56;36.10;19.10
16437;DHT22;8328;52.206;21.006;2023-07-29T12:49:22;37.30;20.50
16437;DHT22;8328;52.206;21.006;2023-07-29T12:51:48;38.90;18.90
16437;DHT22;8328;52.206;21.006;2023-07-29T12:54:14;41.00;17.00
16437;DHT22;8328;52.206;21.006;2023-07-29T12:56:40;42.70;13.80
16437;DHT22;8328;52.206;21.006;2023-07-29T12:59:06;44.10;10.70
16437;DHT22;8328;52.206;21.006;2023-07-29T13:01:31;45.10;8.10
16437;DHT22;8328;52.206;21.006;2023-07-29T13:03:57;45.90;4.30
16437;DHT22;8328;52.206;21.006;2023-07-29T13:06:23;45.50;2.10
16437;DHT22;8328;52.206;21.006;2023-07-29T13:08:49;44.10;2.40
16437;DHT22;8328;52.206;21.006;2023-07-29T13:11:16;45.70;1.10
16437;DHT22;8328;52.206;21.006;2023-07-29T13:13:42;47.00;1.00
16437;DHT22;8328;52.206;21.006;2023-07-29T13:16:08;48.50;1.00
16437;DHT22;8328;52.206;21.006;2023-07-29T13:18:33;49.60;1.00
16437;DHT22;8328;52.206;21.006;2023-07-29T13:21:00;49.60;1.00
16437;DHT22;8328;52.206;21.006;2023-07-29T13:23:26;49.80;1.00
16437;DHT22;8328;52.206;21.006;2023-07-29T13:25:53;50.10;1.00
16437;DHT22;8328;52.206;21.006;2023-07-29T13:28:19;50.50;1.00
16437;DHT22;8328;52.206;21.006;2023-07-29T13:30:45;50.70;1.00
16437;DHT22;8328;52.206;21.006;2023-07-29T13:33:11;50.40;1.00
16437;DHT22;8328;52.206;21.006;2023-07-29T13:35:36;50.40;1.00
16437;DHT22;8328;52.206;21.006;2023-07-29T13:38:03;50.70;1.00
16437;DHT22;8328;52.206;21.006;2023-07-29T13:40:29;50.80;1.00
16437;DHT22;8328;52.206;21.006;2023-07-29T13:42:55;51.40;1.00
16437;DHT22;8328;52.206;21.006;2023-07-29T13:45:21;51.40;1.00
16437;DHT22;8328;52.206;21.006;2023-07-29T13:47:50;51.50;1.00
16437;DHT22;8328;52.206;21.006;2023-07-29T13:50:19;51.60;1.00
16437;DHT22;8328;52.206;21.006;2023-07-29T13:52:45;51.30;1.00
16437;DHT22;8328;52.206;21.006;2023-07-29T13:55:11;51.80;1.00
16437;DHT22;8328;52.206;21.006;2023-07-29T13:57:37;51.10;1.00
16437;DHT22;8328;52.206;21.006;2023-07-29T14:00:06;52.50;1.00
16437;DHT22;8328;52.206;21.006;2023-07-29T14:02:32;53.20;1.00
16437;DHT22;8328;52.206;21.006;2023-07-29T14:04:58;53.50;1.00
16437;DHT22;8328;52.206;21.006;2023-07-29T14:07:24;51.60;1.00
16437;DHT22;8328;52.206;21.006;2023-07-29T14:09:49;50.60;1.00
16437;DHT22;8328;52.206;21.006;2023-07-29T14:12:16;50.60;1.00
16437;DHT22;8328;52.206;21.006;2023-07-29T14:14:42;50.80;1.00
16437;DHT22;8328;52.206;21.006;2023-07-29T14:17:08;51.50;1.00
16437;DHT22;8328;52.206;21.006;2023-07-29T14:19:35;51.20;1.00
16437;DHT22;8328;52.206;21.006;2023-07-29T14:22:01;49.10;1.00
16437;DHT22;8328;52.206;21.006;2023-07-29T14:24:27;48.50;1.00
16437;DHT22;8328;52.206;21.006;2023-07-29T14:26:52;49.30;1.00
16437;DHT22;8328;52.206;21.006;2023-07-29T14:29:18;50.40;1.00
16437;DHT22;8328;52.206;21.006;2023-07-29T14:31:44;51.40;1.00
16437;DHT22;8328;52.206;21.006;2023-07-29T14:34:10;51.00;1.00
16437;DHT22;8328;52.206;21.006;2023-07-29T14:36:36;49.90;1.00
16437;DHT22;8328;52.206;21.006;2023-07-29T14:39:02;49.40;1.00
16437;DHT22;8328;52.206;21.006;2023-07-29T14:41:28;50.50;1.00
16437;DHT22;8328;52.206;21.006;2023-07-29T14:43:53;50.60;1.00
16437;DHT22;8328;52.206;21.006;2023-07-29T14:46:19;50.50;1.00
16437;DHT22;8328;52.206;21.006;2023-07-29T14:48:45;50.60;1.00
16437;DHT22;8328;52.206;21.006;2023-07-29T14:51:13;50.50;1.00
16437;DHT22;8328;52.206;21.006;2023-07-29T14:53:39;50.80;1.00
16437;DHT22;8328;52.206;21.006;2023-07-29T14:56:04;49.00;1.00
16437;DHT22;8328;52.206;21.006;2023-07-29T14:58:30;46.30;1.00
16437;DHT22;8328;52.206;21.006;2023-07-29T15:00:56;43.50;1.00
16437;DHT22;8328;52.206;21.006;2023-07-29T15:03:24;41.60;1.00
16437;DHT22;8328;52.206;21.006;2023-07-29T15:05:52;40.20;1.00
16437;DHT22;8328;52.206;21.006;2023-07-29T15:08:19;39.30;1.00
16437;DHT22;8328;52.206;21.006;2023-07-29T15:10:49;37.10;1.00
16437;DHT22;8328;52.206;21.006;2023-07-29T15:13:14;37.60;1.00
16437;DHT22;8328;52.206;21.006;2023-07-29T15:15:44;37.20;1.00
16437;DHT22;8328;52.206;21.006;2023-07-29T15:18:10;36.60;1.00
16437;DHT22;8328;52.206;21.006;2023-07-29T15:20:36;36.00;1.00
16437;DHT22;8328;52.206;21.006;2023-07-29T15:23:02;35.50;1.00
16437;DHT22;8328;52.206;21.006;2023-07-29T15:25:28;35.10;1.00
16437;DHT22;8328;52.206;21.006;2023-07-29T15:27:54;35.00;1.00
16437;DHT22;8328;52.206;21.006;2023-07-29T15:30:20;34.60;1.50
16437;DHT22;8328;52.206;21.006;2023-07-29T15:32:46;34.10;2.40
16437;DHT22;8328;52.206;21.006;2023-07-29T15:35:12;33.50;2.90
16437;DHT22;8328;52.206;21.006;2023-07-29T15:37:38;33.40;3.70
16437;DHT22;8328;52.206;21.006;2023-07-29T15:40:04;33.10;3.50
16437;DHT22;8328;52.206;21.006;2023-07-29T15:42:32;32.80;4.60
16437;DHT22;8328;52.206;21.006;2023-07-29T15:44:57;32.60;5.50
16437;DHT22;8328;52.206;21.006;2023-07-29T15:47:23;32.40;6.00
16437;DHT22;8328;52.206;21.006;2023-07-29T15:49:49;32.30;6.40
16437;DHT22;8328;52.206;21.006;2023-07-29T15:52:15;32.10;6.80
16437;DHT22;8328;52.206;21.006;2023-07-29T15:54:41;31.60;7.30
16437;DHT22;8328;52.206;21.006;2023-07-29T15:57:07;31.00;8.40
16437;DHT22;8328;52.206;21.006;2023-07-29T16:02:00;30.70;9.20
16437;DHT22;8328;52.206;21.006;2023-07-29T16:04:26;30.40;10.40
16437;DHT22;8328;52.206;21.006;2023-07-29T16:06:51;30.00;11.10
16437;DHT22;8328;52.206;21.006;2023-07-29T16:09:17;29.90;11.70
16437;DHT22;8328;52.206;21.006;2023-07-29T16:11:49;29.70;12.40
16437;DHT22;8328;52.206;21.006;2023-07-29T16:14:15;29.60;13.00
16437;DHT22;8328;52.206;21.006;2023-07-29T16:16:42;29.40;13.90
16437;DHT22;8328;52.206;21.006;2023-07-29T16:19:08;29.30;14.30
16437;DHT22;8328;52.206;21.006;2023-07-29T16:21:35;29.30;14.80
16437;DHT22;8328;52.206;21.006;2023-07-29T16:24:01;29.40;14.80
16437;DHT22;8328;52.206;21.006;2023-07-29T16:26:27;29.60;14.90
16437;DHT22;8328;52.206;21.006;2023-07-29T16:28:53;29.70;14.80
16437;DHT22;8328;52.206;21.006;2023-07-29T16:31:19;29.90;14.80
16437;DHT22;8328;52.206;21.006;2023-07-29T16:33:46;30.00;14.60
16437;DHT22;8328;52.206;21.006;2023-07-29T16:36:11;30.00;14.90
16437;DHT22;8328;52.206;21.006;2023-07-29T16:38:37;29.90;14.60
16437;DHT22;8328;52.206;21.006;2023-07-29T16:45:55;29.40;14.90
16437;DHT22;8328;52.206;21.006;2023-07-29T16:48:21;28.90;15.80
16437;DHT22;8328;52.206;21.006;2023-07-29T16:53:13;28.70;16.50
16437;DHT22;8328;52.206;21.006;2023-07-29T16:55:39;28.60;17.60
16437;DHT22;8328;52.206;21.006;2023-07-29T16:58:05;28.40;17.90
16437;DHT22;8328;52.206;21.006;2023-07-29T17:00:31;27.90;18.30
16437;DHT22;8328;52.206;21.006;2023-07-29T17:10:15;27.30;20.60
16437;DHT22;8328;52.206;21.006;2023-07-29T17:12:41;27.20;21.70
16437;DHT22;8328;52.206;21.006;2023-07-29T17:15:07;27.10;22.20
16437;DHT22;8328;52.206;21.006;2023-07-29T17:17:34;27.00;22.90
16437;DHT22;8328;52.206;21.006;2023-07-29T17:22:26;26.90;23.50
16437;DHT22;8328;52.206;21.006;2023-07-29T17:29:44;26.60;26.10
16437;DHT22;8328;52.206;21.006;2023-07-29T17:32:11;26.50;27.20
16437;DHT22;8328;52.206;21.006;2023-07-29T17:34:37;26.40;27.60
16437;DHT22;8328;52.206;21.006;2023-07-29T17:37:03;26.20;28.60
16437;DHT22;8328;52.206;21.006;2023-07-29T17:39:28;25.90;29.60
16437;DHT22;8328;52.206;21.006;2023-07-29T17:41:54;25.90;30.20
16437;DHT22;8328;52.206;21.006;2023-07-29T17:44:20;25.80;31.00
16437;DHT22;8328;52.206;21.006;2023-07-29T17:46:46;25.60;31.90
16437;DHT22;8328;52.206;21.006;2023-07-29T17:56:30;25.10;36.10
16437;DHT22;8328;52.206;21.006;2023-07-29T17:58:55;25.00;38.30
16437;DHT22;8328;52.206;21.006;2023-07-29T18:01:21;24.90;40.00
16437;DHT22;8328;52.206;21.006;2023-07-29T18:03:47;24.80;41.70
16437;DHT22;8328;52.206;21.006;2023-07-29T18:06:16;24.80;43.80
16437;DHT22;8328;52.206;21.006;2023-07-29T18:08:43;24.70;46.00
16437;DHT22;8328;52.206;21.006;2023-07-29T18:13:37;24.50;50.90